createdAt,value
2022-11-20T00:00:21.276Z,100210.94
2022-11-20T00:03:24.265Z,100200.69
2022-11-20T00:06:27.796Z,100204.81
2022-11-20T00:09:31.013Z,100194.38
2022-11-20T00:12:33.553Z,100213.25
2022-11-20T00:15:36.006Z,100209.75
2022-11-20T00:18:38.989Z,100216.63
2022-11-20T00:21:41.960Z,100217.75
2022-11-20T00:24:44.447Z,100220.44
2022-11-20T00:27:47.792Z,100210.44
2022-11-20T00:30:50.463Z,100213.81
2022-11-20T00:33:53.397Z,100222.63
2022-11-20T00:36:56.111Z,100219.41
2022-11-20T00:39:58.375Z,100215.91
2022-11-20T00:43:00.899Z,100220.19
2022-11-20T00:46:06.630Z,100215.03
2022-11-20T00:49:10.164Z,100212.91
2022-11-20T00:52:12.829Z,100214.28
2022-11-20T00:55:15.350Z,100218.47
2022-11-20T00:58:17.935Z,100222.09
2022-11-20T01:01:25.322Z,100231.19
2022-11-20T01:04:28.040Z,100228.63
2022-11-20T01:07:30.522Z,100235.78
2022-11-20T01:10:33.074Z,100207.66
2022-11-20T01:13:40.675Z,100232.59
2022-11-20T01:16:46.000Z,100229.81
2022-11-20T01:19:52.626Z,100224.97
2022-11-20T01:22:56.400Z,100222.34
2022-11-20T01:26:00.882Z,100223.44
2022-11-20T01:29:04.474Z,100224.75
2022-11-20T01:32:07.274Z,100218.47
2022-11-20T01:35:10.777Z,100213.00
2022-11-20T01:38:13.403Z,100217.69
2022-11-20T01:41:37.835Z,100229.91
2022-11-20T01:45:01.873Z,100228.19
2022-11-20T01:48:04.547Z,100226.75
2022-11-20T01:51:15.585Z,100231.44
2022-11-20T01:54:25.515Z,100223.94
2022-11-20T01:57:30.349Z,100202.31
2022-11-20T02:00:32.736Z,100227.19
2022-11-20T02:03:35.309Z,100206.25
2022-11-20T02:06:50.669Z,100192.75
2022-11-20T02:09:58.557Z,100199.06
2022-11-20T02:13:20.433Z,100198.84
2022-11-20T02:16:28.361Z,100192.13
2022-11-20T02:19:33.436Z,100190.47
2022-11-20T02:22:47.045Z,100181.19
2022-11-20T02:25:49.675Z,100197.03
2022-11-20T02:28:52.504Z,100197.53
2022-11-20T02:31:56.735Z,100197.47
2022-11-20T02:34:59.582Z,100203.13
2022-11-20T02:38:04.309Z,100199.06
2022-11-20T02:41:06.596Z,100204.22
2022-11-20T02:44:09.238Z,100197.44
2022-11-20T02:47:11.702Z,100190.50
2022-11-20T02:50:14.595Z,100197.06
2022-11-20T02:53:16.856Z,100201.03
2022-11-20T02:56:19.293Z,100199.75
2022-11-20T02:59:22.201Z,100202.88
2022-11-20T03:02:25.278Z,100195.44
2022-11-20T03:05:27.916Z,100199.22
2022-11-20T03:08:30.380Z,100202.28
2022-11-20T03:11:32.896Z,100198.25
2022-11-20T03:14:38.110Z,100191.44
2022-11-20T03:17:41.554Z,100166.69
2022-11-20T03:20:45.029Z,100182.97
2022-11-20T03:23:47.869Z,100192.94
2022-11-20T03:26:51.081Z,100172.75
2022-11-20T03:29:54.602Z,100173.38
2022-11-20T03:32:57.310Z,100177.63
2022-11-20T03:36:04.136Z,100176.16
2022-11-20T03:39:06.682Z,100173.91
2022-11-20T03:42:30.279Z,100171.13
2022-11-20T03:45:33.363Z,100175.75
2022-11-20T03:48:36.346Z,100162.72
2022-11-20T03:51:38.740Z,100175.41
2022-11-20T03:54:41.675Z,100175.25
2022-11-20T03:57:44.175Z,100181.69
2022-11-20T04:00:46.651Z,100178.50
2022-11-20T04:03:49.618Z,100170.91
2022-11-20T04:06:51.991Z,100178.63
2022-11-20T04:09:55.347Z,100187.84
2022-11-20T04:12:57.856Z,100173.41
2022-11-20T04:16:00.160Z,100175.69
2022-11-20T04:19:04.943Z,100170.81
2022-11-20T04:22:07.489Z,100170.59
2022-11-20T04:25:11.002Z,100164.25
2022-11-20T04:28:14.758Z,100164.66
2022-11-20T04:31:27.579Z,100166.09
2022-11-20T04:34:30.091Z,100167.06
2022-11-20T04:37:32.395Z,100166.28
2022-11-20T04:40:35.091Z,100165.06
2022-11-20T04:43:37.931Z,100162.38
2022-11-20T04:46:44.115Z,100156.75
2022-11-20T04:49:46.799Z,100161.44
2022-11-20T04:52:49.522Z,100155.03
2022-11-20T04:55:52.369Z,100154.88
2022-11-20T04:58:54.865Z,100149.41
2022-11-20T05:01:57.663Z,100153.06
2022-11-20T05:05:00.903Z,100121.06
2022-11-20T05:08:03.855Z,100152.59
2022-11-20T05:11:09.631Z,100131.44
2022-11-20T05:14:12.216Z,100150.72
2022-11-20T05:17:15.559Z,100150.75
2022-11-20T05:20:18.969Z,100150.16
2022-11-20T05:23:21.741Z,100150.91
2022-11-20T05:26:25.366Z,100153.53
2022-11-20T05:29:28.025Z,100144.34
2022-11-20T05:32:30.521Z,100143.53
2022-11-20T05:35:33.050Z,100135.56
2022-11-20T05:38:37.205Z,100118.19
2022-11-20T05:41:40.022Z,100150.69
2022-11-20T05:44:42.609Z,100141.84
2022-11-20T05:47:45.285Z,100155.44
2022-11-20T05:50:47.989Z,100146.72
2022-11-20T05:53:50.870Z,100140.59
2022-11-20T05:56:54.386Z,100133.25
2022-11-20T05:59:56.921Z,100127.34
2022-11-20T06:02:59.393Z,100139.81
2022-11-20T06:06:03.429Z,100129.13
2022-11-20T06:09:06.074Z,100135.78
2022-11-20T06:12:09.115Z,100141.03
2022-11-20T06:15:12.093Z,100127.06
2022-11-20T06:18:15.263Z,100132.63
2022-11-20T06:21:20.564Z,100126.72
2022-11-20T06:24:23.948Z,100129.88
2022-11-20T06:27:26.680Z,100133.69
2022-11-20T06:30:29.175Z,100127.34
2022-11-20T06:33:32.613Z,100125.00
2022-11-20T06:36:35.412Z,100116.75
2022-11-20T06:39:37.753Z,100119.66
2022-11-20T06:42:40.158Z,100121.94
2022-11-20T06:45:44.515Z,100090.34
2022-11-20T06:48:50.380Z,100123.16
2022-11-20T06:51:52.943Z,100118.50
2022-11-20T06:54:55.593Z,100116.94
2022-11-20T06:57:58.137Z,100122.72
2022-11-20T07:01:27.296Z,100126.78
2022-11-20T07:04:30.264Z,100123.34
2022-11-20T07:07:32.819Z,100118.66
2022-11-20T07:10:35.964Z,100105.47
2022-11-20T07:13:39.268Z,100117.41
2022-11-20T07:16:41.949Z,100119.66
2022-11-20T07:19:44.641Z,100094.72
2022-11-20T07:22:47.270Z,100114.41
2022-11-20T07:25:49.621Z,100110.75
2022-11-20T07:28:52.106Z,100119.75
2022-11-20T07:31:57.181Z,100111.59
2022-11-20T07:35:00.118Z,100119.72
2022-11-20T07:38:02.550Z,100110.94
2022-11-20T07:41:05.116Z,100106.72
2022-11-20T07:44:08.154Z,100102.22
2022-11-20T07:47:14.306Z,100066.50
2022-11-20T07:50:17.168Z,100110.47
2022-11-20T07:53:21.882Z,100093.69
2022-11-20T07:56:24.645Z,100096.88
2022-11-20T07:59:26.890Z,100093.09
2022-11-20T08:02:29.315Z,100089.03
2022-11-20T08:05:32.091Z,100096.63
2022-11-20T08:08:37.849Z,100097.63
2022-11-20T08:12:01.924Z,100101.34
2022-11-20T08:15:12.608Z,100090.66
2022-11-20T08:18:30.439Z,100104.03
2022-11-20T08:21:38.202Z,100096.91
2022-11-20T08:24:41.018Z,100093.41
2022-11-20T08:27:43.308Z,100084.75
2022-11-20T08:30:47.057Z,100078.59
2022-11-20T08:33:49.452Z,100085.81
2022-11-20T08:36:52.666Z,100079.59
2022-11-20T08:39:58.133Z,100075.69
2022-11-20T08:43:00.783Z,100079.56
2022-11-20T08:46:03.440Z,100076.84
2022-11-20T08:49:07.285Z,100073.63
2022-11-20T08:52:09.825Z,100069.44
2022-11-20T08:55:12.964Z,100069.53
2022-11-20T08:58:16.914Z,100068.88
2022-11-20T09:01:21.373Z,100063.78
2022-11-20T09:04:23.816Z,100048.16
2022-11-20T09:07:26.937Z,100056.16
2022-11-20T09:10:29.649Z,100060.06
2022-11-20T09:13:33.614Z,100071.16
2022-11-20T09:16:36.279Z,100072.66
2022-11-20T09:19:38.705Z,100068.31
2022-11-20T09:22:42.016Z,100069.34
2022-11-20T09:25:44.945Z,100065.06
2022-11-20T09:28:47.453Z,100070.38
2022-11-20T09:31:49.859Z,100053.28
2022-11-20T09:34:53.648Z,100058.84
2022-11-20T09:37:56.169Z,100067.09
2022-11-20T09:41:02.458Z,100069.38
2022-11-20T09:44:33.989Z,100056.56
2022-11-20T09:48:24.352Z,100054.09
2022-11-20T09:51:32.754Z,100046.09
2022-11-20T09:54:38.095Z,100047.91
2022-11-20T09:57:46.517Z,100044.13
2022-11-20T10:00:49.507Z,100042.03
2022-11-20T10:03:57.527Z,100047.63
2022-11-20T10:07:31.760Z,100045.19
2022-11-20T10:10:43.602Z,100040.72
2022-11-20T10:14:20.940Z,100050.19
2022-11-20T10:17:23.727Z,100050.63
2022-11-20T10:20:50.937Z,100046.47
2022-11-20T10:24:05.075Z,100046.91
2022-11-20T10:27:36.358Z,100047.22
2022-11-20T10:30:42.392Z,100037.59
2022-11-20T10:34:11.006Z,100048.03
2022-11-20T10:37:34.275Z,100040.50
2022-11-20T10:40:43.157Z,100037.63
2022-11-20T10:43:46.222Z,100045.84
2022-11-20T10:46:49.035Z,100047.50
2022-11-20T10:49:58.466Z,100039.81
2022-11-20T10:53:21.114Z,100045.56
2022-11-20T10:56:48.301Z,100038.56
2022-11-20T10:59:58.367Z,100031.03
2022-11-20T11:03:04.180Z,100022.97
2022-11-20T11:06:28.420Z,100026.22
2022-11-20T11:09:41.928Z,100026.13
2022-11-20T11:12:52.255Z,100018.09
2022-11-20T11:15:57.761Z,100026.63
2022-11-20T11:19:14.684Z,100023.16
2022-11-20T11:22:19.652Z,100018.53
2022-11-20T11:25:35.591Z,100013.78
2022-11-20T11:28:38.161Z,100008.31
2022-11-20T11:31:40.573Z,100005.22
2022-11-20T11:34:44.062Z,100005.84
2022-11-20T11:37:50.460Z,100006.91
2022-11-20T11:40:55.658Z,100008.25
2022-11-20T11:44:18.494Z,100006.97
2022-11-20T11:47:39.709Z,100005.91
2022-11-20T11:50:51.065Z,100004.56
2022-11-20T11:53:54.783Z,99992.16
2022-11-20T11:56:57.661Z,99986.69
2022-11-20T12:00:07.982Z,99989.38
2022-11-20T12:03:21.046Z,99991.06
2022-11-20T12:06:24.188Z,99989.25
2022-11-20T12:09:34.082Z,99991.47
2022-11-20T12:12:44.656Z,99977.91
2022-11-20T12:15:49.251Z,99970.56
2022-11-20T12:18:54.038Z,99972.56
2022-11-20T12:22:15.516Z,99976.00
2022-11-20T12:25:28.097Z,99972.81
2022-11-20T12:28:41.691Z,99959.63
2022-11-20T12:31:57.751Z,99966.03
2022-11-20T12:35:27.827Z,99962.72
2022-11-20T12:38:39.953Z,99963.28
2022-11-20T12:42:16.139Z,99960.00
2022-11-20T12:45:57.633Z,99955.94
2022-11-20T12:49:06.858Z,99955.31
2022-11-20T12:52:22.475Z,99953.06
2022-11-20T12:55:38.335Z,99947.91
2022-11-20T12:58:46.421Z,99953.91
2022-11-20T13:01:55.823Z,99932.28
2022-11-20T13:05:13.862Z,99939.06
2022-11-20T13:08:25.616Z,99919.31
2022-11-20T13:12:13.967Z,99931.03
2022-11-20T13:15:37.624Z,99916.00
2022-11-20T13:18:43.698Z,99914.97
2022-11-20T13:21:50.342Z,99918.47
2022-11-20T13:24:53.505Z,99910.44
2022-11-20T13:27:58.261Z,99904.03
2022-11-20T13:31:00.774Z,99903.69
2022-11-20T13:34:06.055Z,99903.03
2022-11-20T13:37:33.441Z,99901.41
2022-11-20T13:40:52.128Z,99905.56
2022-11-20T13:43:54.611Z,99901.41
2022-11-20T13:46:57.085Z,99904.94
2022-11-20T13:50:03.406Z,99882.84
2022-11-20T13:53:09.157Z,99892.00
2022-11-20T13:56:45.296Z,99870.47
2022-11-20T14:00:07.905Z,99888.31
2022-11-20T14:03:37.840Z,99885.47
2022-11-20T14:06:46.188Z,99868.53
2022-11-20T14:09:58.506Z,99873.06
2022-11-20T14:13:12.814Z,99878.03
2022-11-20T14:16:21.626Z,99875.38
2022-11-20T14:19:29.925Z,99870.59
2022-11-20T14:22:33.504Z,99848.09
2022-11-20T14:25:36.209Z,99864.72
2022-11-20T14:28:38.779Z,99872.94
2022-11-20T14:31:41.561Z,99864.50
2022-11-20T14:34:47.800Z,99864.91
2022-11-20T14:37:51.091Z,99866.38
2022-11-20T14:40:54.343Z,99845.59
2022-11-20T14:44:00.925Z,99851.53
2022-11-20T14:47:06.736Z,99846.00
2022-11-20T14:50:29.272Z,99852.78
2022-11-20T14:53:32.318Z,99848.25
2022-11-20T14:56:34.662Z,99846.41
2022-11-20T14:59:37.306Z,99842.72
2022-11-20T15:02:47.629Z,99832.41
2022-11-20T15:05:52.297Z,99835.28
2022-11-20T15:08:55.684Z,99842.69
2022-11-20T15:12:03.659Z,99840.25
2022-11-20T15:15:07.510Z,99829.97
2022-11-20T15:18:20.319Z,99832.88
2022-11-20T15:21:23.088Z,99828.50
2022-11-20T15:24:26.133Z,99825.44
2022-11-20T15:27:28.731Z,99827.28
2022-11-20T15:30:31.587Z,99816.38
2022-11-20T15:33:35.300Z,99814.31
2022-11-20T15:36:37.811Z,99820.28
2022-11-20T15:39:42.191Z,99818.84
2022-11-20T15:43:05.851Z,99812.69
2022-11-20T15:46:13.932Z,99809.59
2022-11-20T15:49:19.853Z,99804.22
2022-11-20T15:52:23.102Z,99797.06
2022-11-20T15:55:27.302Z,99810.81
2022-11-20T15:58:30.661Z,99806.91
2022-11-20T16:01:35.923Z,99797.06
2022-11-20T16:04:38.839Z,99802.81
2022-11-20T16:07:41.543Z,99805.72
2022-11-20T16:10:44.253Z,99795.19
2022-11-20T16:14:07.631Z,99802.41
2022-11-20T16:17:10.552Z,99799.13
2022-11-20T16:20:13.506Z,99793.72
2022-11-20T16:23:16.788Z,99791.72
2022-11-20T16:26:21.954Z,99799.06
2022-11-20T16:29:25.532Z,99762.34
2022-11-20T16:32:28.844Z,99791.09
2022-11-20T16:35:32.949Z,99792.53
2022-11-20T16:38:36.279Z,99785.75
2022-11-20T16:41:38.821Z,99790.84
2022-11-20T16:44:41.251Z,99780.59
2022-11-20T16:47:46.264Z,99788.78
2022-11-20T16:50:53.767Z,99796.13
2022-11-20T16:53:59.495Z,99786.72
2022-11-20T16:57:04.008Z,99798.19
2022-11-20T17:00:07.163Z,99800.50
2022-11-20T17:03:10.939Z,99791.69
2022-11-20T17:06:16.798Z,99803.59
2022-11-20T17:09:19.939Z,99796.41
2022-11-20T17:12:25.157Z,99803.78
2022-11-20T17:15:28.035Z,99797.81
2022-11-20T17:18:31.101Z,99800.41
2022-11-20T17:21:36.321Z,99790.59
2022-11-20T17:24:39.979Z,99788.75
2022-11-20T17:27:43.800Z,99787.47
2022-11-20T17:30:46.480Z,99784.88
2022-11-20T17:33:49.127Z,99790.03
2022-11-20T17:36:52.042Z,99781.19
2022-11-20T17:39:55.157Z,99789.97
2022-11-20T17:42:59.248Z,99786.50
2022-11-20T17:46:02.718Z,99787.47
2022-11-20T17:49:05.409Z,99787.13
2022-11-20T17:52:08.114Z,99778.72
2022-11-20T17:55:11.089Z,99753.25
2022-11-20T17:58:13.691Z,99776.41
2022-11-20T18:01:17.507Z,99775.34
2022-11-20T18:04:20.064Z,99772.97
2022-11-20T18:07:23.489Z,99769.25
2022-11-20T18:10:25.862Z,99773.38
2022-11-20T18:13:48.442Z,99770.16
2022-11-20T18:16:56.644Z,99766.03
2022-11-20T18:20:28.315Z,99760.66
2022-11-20T18:23:21.894Z,99764.13
2022-11-20T18:26:26.672Z,99744.66
2022-11-20T18:29:31.278Z,99761.66
2022-11-20T18:32:38.202Z,99753.94
2022-11-20T18:35:43.313Z,99761.09
2022-11-20T18:38:47.709Z,99752.94
2022-11-20T18:42:10.889Z,99759.69
2022-11-20T18:45:13.606Z,99747.41
2022-11-20T18:48:16.613Z,99752.56
2022-11-20T18:51:19.217Z,99762.16
2022-11-20T18:54:22.033Z,99767.75
2022-11-20T18:57:26.594Z,99729.13
2022-11-20T19:00:28.918Z,99755.63
2022-11-20T19:03:31.810Z,99755.63
2022-11-20T19:06:34.351Z,99756.06
2022-11-20T19:09:37.549Z,99743.28
2022-11-20T19:12:40.201Z,99754.56
2022-11-20T19:15:42.676Z,99752.31
2022-11-20T19:18:45.584Z,99756.63
2022-11-20T19:21:48.954Z,99749.06
2022-11-20T19:24:51.945Z,99750.28
2022-11-20T19:27:57.098Z,99744.09
2022-11-20T19:31:11.647Z,99749.47
2022-11-20T19:34:16.222Z,99714.53
2022-11-20T19:37:19.274Z,99748.41
2022-11-20T19:40:22.253Z,99740.78
2022-11-20T19:43:25.344Z,99745.53
2022-11-20T19:46:31.205Z,99731.41
2022-11-20T19:49:34.092Z,99749.50
2022-11-20T19:52:36.646Z,99741.09
2022-11-20T19:55:40.117Z,99749.09
2022-11-20T19:58:43.814Z,99751.13
2022-11-20T20:01:49.831Z,99727.50
2022-11-20T20:04:52.760Z,99729.75
2022-11-20T20:07:56.934Z,99743.41
2022-11-20T20:10:59.916Z,99748.03
2022-11-20T20:14:14.665Z,99737.75
2022-11-20T20:17:17.321Z,99740.44
2022-11-20T20:20:19.871Z,99738.81
2022-11-20T20:23:22.382Z,99738.19
2022-11-20T20:26:25.417Z,99747.44
2022-11-20T20:29:27.952Z,99751.78
2022-11-20T20:32:32.542Z,99744.34
2022-11-20T20:35:35.176Z,99739.63
2022-11-20T20:38:37.777Z,99745.38
2022-11-20T20:41:41.742Z,99744.16
2022-11-20T20:45:02.880Z,99735.47
2022-11-20T20:48:05.856Z,99733.44
2022-11-20T20:51:10.116Z,99737.09
2022-11-20T20:54:12.550Z,99741.63
2022-11-20T20:57:16.209Z,99739.22
2022-11-20T21:00:19.046Z,99744.38
2022-11-20T21:03:21.738Z,99743.34
2022-11-20T21:06:24.357Z,99749.69
2022-11-20T21:09:26.828Z,99745.16
2022-11-20T21:12:29.486Z,99737.13
2022-11-20T21:15:32.696Z,99741.81
2022-11-20T21:18:36.835Z,99741.66
2022-11-20T21:21:58.379Z,99738.97
2022-11-20T21:25:01.574Z,99741.81
2022-11-20T21:28:04.423Z,99744.88
2022-11-20T21:31:08.211Z,99738.09
2022-11-20T21:34:13.124Z,99739.97
2022-11-20T21:37:15.444Z,99738.94
2022-11-20T21:40:17.929Z,99734.44
2022-11-20T21:43:21.198Z,99738.97
2022-11-20T21:46:24.201Z,99677.97
2022-11-20T21:49:26.916Z,99736.88
2022-11-20T21:52:29.598Z,99733.59
2022-11-20T21:55:32.348Z,99724.34
2022-11-20T21:58:36.479Z,99733.81
2022-11-20T22:01:39.852Z,99726.59
2022-11-20T22:04:42.673Z,99730.53
2022-11-20T22:07:46.148Z,99735.84
2022-11-20T22:11:04.327Z,99724.53
2022-11-20T22:14:22.773Z,99728.25
2022-11-20T22:17:45.116Z,99725.38
2022-11-20T22:20:47.628Z,99735.03
2022-11-20T22:23:50.825Z,99725.09
2022-11-20T22:26:54.026Z,99725.50
2022-11-20T22:29:57.470Z,99713.19
2022-11-20T22:33:00.199Z,99724.53
2022-11-20T22:36:06.868Z,99716.94
2022-11-20T22:39:10.041Z,99721.47
2022-11-20T22:42:12.464Z,99722.56
2022-11-20T22:45:15.276Z,99717.03
2022-11-20T22:48:19.003Z,99673.09
2022-11-20T22:51:24.481Z,99702.88
2022-11-20T22:54:27.167Z,99710.09
2022-11-20T22:57:29.616Z,99699.22
2022-11-20T23:00:32.305Z,99713.81
2022-11-20T23:03:35.490Z,99715.44
2022-11-20T23:06:38.528Z,99710.09
2022-11-20T23:09:42.402Z,99710.09
2022-11-20T23:12:45.079Z,99727.34
2022-11-20T23:15:48.075Z,99725.91
2022-11-20T23:18:55.878Z,99714.59
2022-11-20T23:21:58.399Z,99694.50
2022-11-20T23:25:00.716Z,99713.38
2022-11-20T23:28:05.062Z,99705.97
2022-11-20T23:31:08.305Z,99689.75
2022-11-20T23:34:11.074Z,99691.38
2022-11-20T23:37:14.689Z,99689.13
2022-11-20T23:40:19.353Z,99681.72
2022-11-20T23:43:23.213Z,99676.78
2022-11-20T23:46:25.554Z,99674.13
2022-11-20T23:49:28.071Z,99648.47
2022-11-20T23:52:30.594Z,99678.84
2022-11-20T23:55:32.937Z,99680.50
2022-11-20T23:58:37.502Z,99677.63
